Time,TemperatureF,DewpointF,PressureIn,WindDirection,WindDirectionDegrees,WindSpeedMPH,WindSpeedGustMPH,Humidity,HourlyPrecipIn,Conditions,Clouds,dailyrainin,SoftwareType,DateUTC
2013-05-13 00:01:00,39.4,32.0,29.91,West,264,13.0,18.0,74,0.00,,,0.04,weatherlink.com 1.10,2013-05-13 04:01:00,
2013-05-13 00:16:00,39.2,31.0,29.91,West,260,8.0,18.0,72,0.00,,,0.04,weatherlink.com 1.10,2013-05-13 04:16:00,
2013-05-13 00:31:00,38.8,30.0,29.91,WSW,250,19.0,20.0,71,0.00,,,0.04,weatherlink.com 1.10,2013-05-13 04:31:00,
2013-05-13 00:46:00,38.6,31.0,29.91,SSW,210,9.0,17.0,75,0.00,,,0.04,weatherlink.com 1.10,2013-05-13 04:46:00,
2013-05-13 01:01:00,38.8,30.0,29.92,SW,233,19.0,28.0,72,0.00,,,0.04,weatherlink.com 1.10,2013-05-13 05:01:00,
2013-05-13 01:16:00,38.6,31.0,29.92,WSW,241,17.0,21.0,73,0.00,,,0.04,weatherlink.com 1.10,2013-05-13 05:16:00,
2013-05-13 01:31:00,38.4,30.0,29.93,WSW,245,19.0,21.0,71,0.00,,,0.04,weatherlink.com 1.10,2013-05-13 05:31:00,
2013-05-13 01:46:00,38.3,30.0,29.93,WSW,240,11.0,26.0,71,0.00,,,0.04,weatherlink.com 1.10,2013-05-13 05:46:00,
2013-05-13 02:01:00,38.3,30.0,29.93,WSW,256,13.0,22.0,72,0.00,,,0.04,weatherlink.com 1.10,2013-05-13 06:01:00,
2013-05-13 02:16:00,38.0,30.0,29.93,WSW,241,12.0,24.0,73,0.00,,,0.04,weatherlink.com 1.10,2013-05-13 06:16:00,
2013-05-13 02:31:00,37.9,30.0,29.92,West,260,19.0,23.0,74,0.00,,,0.04,weatherlink.com 1.10,2013-05-13 06:31:00,
2013-05-13 02:46:00,38.0,29.0,29.93,WSW,254,10.0,22.0,71,0.00,,,0.04,weatherlink.com 1.10,2013-05-13 06:46:00,
2013-05-13 03:01:00,38.1,29.0,29.93,WSW,258,14.0,22.0,71,0.00,,,0.04,weatherlink.com 1.10,2013-05-13 07:01:00,
2013-05-13 03:16:00,37.9,29.0,29.93,West,269,11.0,24.0,70,0.00,,,0.04,weatherlink.com 1.10,2013-05-13 07:16:00,
2013-05-13 03:31:00,37.2,29.0,29.93,WSW,247,11.0,20.0,71,0.00,,,0.04,weatherlink.com 1.10,2013-05-13 07:31:00,
2013-05-13 03:46:00,36.9,29.0,29.93,West,271,17.0,19.0,72,0.00,,,0.04,weatherlink.com 1.10,2013-05-13 07:46:00,
2013-05-13 04:01:00,36.7,28.0,29.93,SW,233,10.0,16.0,72,0.00,,,0.04,weatherlink.com 1.10,2013-05-13 08:01:00,
2013-05-13 04:16:00,36.4,28.0,29.94,WSW,255,10.0,18.0,72,0.00,,,0.04,weatherlink.com 1.10,2013-05-13 08:16:00,
2013-05-13 04:31:00,36.1,28.0,29.94,WSW,256,2.0,10.0,73,0.00,,,0.04,weatherlink.com 1.10,2013-05-13 08:31:00,
2013-05-13 04:46:00,36.0,28.0,29.94,WSW,247,6.0,12.0,74,0.00,,,0.04,weatherlink.com 1.10,2013-05-13 08:46:00,
2013-05-13 05:01:00,36.2,28.0,29.95,West,267,10.0,17.0,73,0.00,,,0.04,weatherlink.com 1.10,2013-05-13 09:01:00,
2013-05-13 05:16:00,36.4,29.0,29.95,WSW,254,9.0,11.0,73,0.00,,,0.04,weatherlink.com 1.10,2013-05-13 09:16:00,
2013-05-13 05:31:00,36.3,29.0,29.95,West,262,3.0,9.0,75,0.00,,,0.04,weatherlink.com 1.10,2013-05-13 09:31:00,
2013-05-13 05:47:00,36.1,29.0,29.96,WSW,256,9.0,13.0,75,0.00,,,0.04,weatherlink.com 1.10,2013-05-13 09:47:00,
2013-05-13 06:02:00,35.9,29.0,29.96,West,260,4.0,12.0,76,0.00,,,0.04,weatherlink.com 1.10,2013-05-13 10:02:00,
2013-05-13 06:17:00,35.9,29.0,29.96,WSW,246,6.0,13.0,77,0.00,,,0.04,weatherlink.com 1.10,2013-05-13 10:17:00,
2013-05-13 06:32:00,35.9,29.0,29.97,West,259,5.0,12.0,77,0.00,,,0.04,weatherlink.com 1.10,2013-05-13 10:32:00,
2013-05-13 06:47:00,36.2,30.0,29.98,WSW,253,13.0,13.0,77,0.00,,,0.04,weatherlink.com 1.10,2013-05-13 10:47:00,
2013-05-13 07:02:00,36.2,30.0,29.98,West,265,6.0,13.0,77,0.00,,,0.04,weatherlink.com 1.10,2013-05-13 11:02:00,
2013-05-13 07:17:00,36.0,29.0,29.99,WSW,242,15.0,18.0,77,0.00,,,0.04,weatherlink.com 1.10,2013-05-13 11:17:00,
2013-05-13 07:32:00,36.1,30.0,29.99,West,272,10.0,17.0,77,0.00,,,0.04,weatherlink.com 1.10,2013-05-13 11:32:00,
2013-05-13 07:47:00,36.4,30.0,29.99,West,269,6.0,19.0,77,0.00,,,0.04,weatherlink.com 1.10,2013-05-13 11:47:00,
2013-05-13 08:02:00,36.7,30.0,30.00,WSW,248,6.0,13.0,76,0.00,,,0.04,weatherlink.com 1.10,2013-05-13 12:02:00,
2013-05-13 08:17:00,37.6,30.0,30.00,WSW,249,5.0,14.0,75,0.00,,,0.04,weatherlink.com 1.10,2013-05-13 12:17:00,
2013-05-13 08:32:00,37.6,30.0,30.01,WSW,250,7.0,15.0,75,0.00,,,0.04,weatherlink.com 1.10,2013-05-13 12:32:00,
2013-05-13 08:47:00,37.6,31.0,30.01,WSW,247,10.0,13.0,76,0.00,,,0.04,weatherlink.com 1.10,2013-05-13 12:47:00,
2013-05-13 09:02:00,37.6,31.0,30.02,WSW,253,7.0,14.0,76,0.00,,,0.04,weatherlink.com 1.10,2013-05-13 13:02:00,
2013-05-13 09:17:00,38.2,31.0,30.02,West,263,5.0,17.0,74,0.00,,,0.00,weatherlink.com 1.10,2013-05-13 13:17:00,
2013-05-13 09:32:00,38.3,31.0,30.02,West,269,12.0,18.0,74,0.00,,,0.00,weatherlink.com 1.10,2013-05-13 13:32:00,
2013-05-13 09:47:00,38.2,30.0,30.03,WSW,253,8.0,15.0,72,0.00,,,0.00,weatherlink.com 1.10,2013-05-13 13:47:00,
2013-05-13 10:02:00,38.7,30.0,30.03,WSW,245,14.0,18.0,71,0.00,,,0.00,weatherlink.com 1.10,2013-05-13 14:02:00,
2013-05-13 10:17:00,39.4,30.0,30.03,West,275,8.0,17.0,70,0.00,,,0.00,weatherlink.com 1.10,2013-05-13 14:17:00,
2013-05-13 10:32:00,39.9,31.0,30.04,WSW,254,6.0,17.0,71,0.00,,,0.00,weatherlink.com 1.10,2013-05-13 14:32:00,
2013-05-13 10:47:00,40.1,31.0,30.05,West,275,19.0,24.0,69,0.00,,,0.00,weatherlink.com 1.10,2013-05-13 14:47:00,
2013-05-13 11:02:00,40.0,30.0,30.05,West,270,10.0,18.0,67,0.00,,,0.00,weatherlink.com 1.10,2013-05-13 15:02:00,
2013-05-13 11:17:00,40.5,29.0,30.05,WNW,298,13.0,19.0,65,0.00,,,0.00,weatherlink.com 1.10,2013-05-13 15:17:00,
2013-05-13 11:32:00,42.1,31.0,30.05,West,279,6.0,20.0,65,0.00,,,0.00,weatherlink.com 1.10,2013-05-13 15:32:00,
2013-05-13 11:47:00,41.8,31.0,30.05,WSW,256,8.0,18.0,66,0.00,,,0.00,weatherlink.com 1.10,2013-05-13 15:47:00,
2013-05-13 12:02:00,42.7,30.0,30.05,SW,231,6.0,17.0,62,0.00,,,0.00,weatherlink.com 1.10,2013-05-13 16:02:00,
2013-05-13 12:17:00,43.5,31.0,30.05,West,265,8.0,13.0,61,0.00,,,0.00,weatherlink.com 1.10,2013-05-13 16:17:00,
2013-05-13 12:32:00,43.0,29.0,30.05,WNW,282,11.0,18.0,59,0.00,,,0.00,weatherlink.com 1.10,2013-05-13 16:32:00,
2013-05-13 12:47:00,43.7,30.0,30.05,NW,306,7.0,22.0,60,0.00,,,0.00,weatherlink.com 1.10,2013-05-13 16:47:00,
2013-05-13 13:02:00,43.0,29.0,30.05,West,280,10.0,22.0,59,0.00,,,0.00,weatherlink.com 1.10,2013-05-13 17:02:00,
2013-05-13 13:32:00,44.3,31.0,30.05,West,272,8.0,18.0,60,0.00,,,0.00,weatherlink.com 1.10,2013-05-13 17:32:00,
2013-05-13 13:47:00,43.2,30.0,30.06,WNW,289,15.0,19.0,59,0.00,,,0.00,weatherlink.com 1.10,2013-05-13 17:47:00,
2013-05-13 14:03:00,43.2,30.0,30.06,WNW,291,12.0,16.0,59,0.00,,,0.00,weatherlink.com 1.10,2013-05-13 18:03:00,
2013-05-13 14:18:00,44.5,30.0,30.06,WSW,253,11.0,17.0,58,0.00,,,0.00,weatherlink.com 1.10,2013-05-13 18:18:00,
2013-05-13 14:33:00,44.1,30.0,30.06,WNW,282,17.0,22.0,58,0.00,,,0.00,weatherlink.com 1.10,2013-05-13 18:33:00,
2013-05-13 14:48:00,44.7,30.0,30.05,West,263,10.0,16.0,57,0.00,,,0.00,weatherlink.com 1.10,2013-05-13 18:48:00,
2013-05-13 15:03:00,44.7,30.0,30.05,West,270,9.0,21.0,56,0.00,,,0.00,weatherlink.com 1.10,2013-05-13 19:03:00,
2013-05-13 15:18:00,45.8,31.0,30.05,WNW,296,8.0,16.0,56,0.00,,,0.00,weatherlink.com 1.10,2013-05-13 19:18:00,
2013-05-13 15:33:00,46.0,30.0,30.05,West,269,10.0,19.0,53,0.00,,,0.00,weatherlink.com 1.10,2013-05-13 19:33:00,
2013-05-13 15:48:00,44.9,29.0,30.05,WNW,291,12.0,22.0,55,0.00,,,0.00,weatherlink.com 1.10,2013-05-13 19:48:00,
2013-05-13 16:03:00,44.0,29.0,30.05,West,281,7.0,19.0,56,0.00,,,0.00,weatherlink.com 1.10,2013-05-13 20:03:00,
2013-05-13 16:18:00,45.4,30.0,30.05,WNW,295,8.0,11.0,55,0.00,,,0.00,weatherlink.com 1.10,2013-05-13 20:18:00,
2013-05-13 16:33:00,46.0,31.0,30.05,NW,312,6.0,11.0,57,0.00,,,0.00,weatherlink.com 1.10,2013-05-13 20:33:00,
2013-05-13 16:48:00,46.3,29.0,30.05,West,280,10.0,21.0,52,0.00,,,0.00,weatherlink.com 1.10,2013-05-13 20:48:00,
2013-05-13 17:03:00,46.1,30.0,30.05,North,354,6.0,19.0,54,0.00,,,0.00,weatherlink.com 1.10,2013-05-13 21:03:00,
2013-05-13 17:18:00,45.6,30.0,30.05,NW,312,3.0,14.0,55,0.00,,,0.00,weatherlink.com 1.10,2013-05-13 21:18:00,
2013-05-13 17:33:00,44.9,31.0,30.07,WNW,294,21.0,26.0,59,0.00,,,0.00,weatherlink.com 1.10,2013-05-13 21:33:00,
2013-05-13 17:48:00,43.2,32.0,30.07,WNW,287,13.0,21.0,66,0.00,,,0.00,weatherlink.com 1.10,2013-05-13 21:48:00,
2013-05-13 18:03:00,44.5,30.0,30.07,WNW,297,9.0,11.0,58,0.00,,,0.00,weatherlink.com 1.10,2013-05-13 22:03:00,
2013-05-13 18:18:00,44.3,32.0,30.06,NW,324,3.0,10.0,63,0.00,,,0.00,weatherlink.com 1.10,2013-05-13 22:18:00,
2013-05-13 18:33:00,44.5,32.0,30.07,West,278,2.0,10.0,62,0.00,,,0.00,weatherlink.com 1.10,2013-05-13 22:33:00,
2013-05-13 18:48:00,45.6,33.0,30.06,West,279,5.0,8.0,61,0.00,,,0.00,weatherlink.com 1.10,2013-05-13 22:48:00,
2013-05-13 19:03:00,45.9,32.0,30.06,WNW,283,5.0,10.0,58,0.00,,,0.00,weatherlink.com 1.10,2013-05-13 23:03:00,
2013-05-13 19:18:00,46.0,30.0,30.07,West,269,6.0,13.0,55,0.00,,,0.00,weatherlink.com 1.10,2013-05-13 23:18:00,
2013-05-13 19:33:00,45.6,30.0,30.07,West,272,7.0,12.0,54,0.00,,,0.00,weatherlink.com 1.10,2013-05-13 23:33:00,
2013-05-13 19:48:00,44.7,30.0,30.08,WNW,283,8.0,10.0,56,0.00,,,0.00,weatherlink.com 1.10,2013-05-13 23:48:00,
2013-05-13 20:03:00,44.5,30.0,30.08,WSW,257,6.0,11.0,58,0.00,,,0.00,weatherlink.com 1.10,2013-05-14 00:03:00,
2013-05-13 20:18:00,44.6,30.0,30.08,WNW,285,9.0,15.0,58,0.00,,,0.00,weatherlink.com 1.10,2013-05-14 00:18:00,
2013-05-13 20:33:00,44.1,31.0,30.08,WSW,257,5.0,11.0,61,0.00,,,0.00,weatherlink.com 1.10,2013-05-14 00:33:00,
2013-05-13 20:48:00,43.4,31.0,30.09,West,272,6.0,10.0,62,0.00,,,0.00,weatherlink.com 1.10,2013-05-14 00:48:00,
2013-05-13 21:03:00,42.8,31.0,30.09,WSW,251,5.0,9.0,64,0.00,,,0.00,weatherlink.com 1.10,2013-05-14 01:03:00,
2013-05-13 21:18:00,42.3,32.0,30.10,West,272,4.0,10.0,66,0.00,,,0.00,weatherlink.com 1.10,2013-05-14 01:18:00,
2013-05-13 21:33:00,42.0,31.0,30.10,West,260,5.0,9.0,66,0.00,,,0.00,weatherlink.com 1.10,2013-05-14 01:33:00,
2013-05-13 21:48:00,41.6,32.0,30.11,WSW,258,7.0,9.0,68,0.00,,,0.00,weatherlink.com 1.10,2013-05-14 01:48:00,
2013-05-13 22:03:00,41.2,32.0,30.12,West,264,10.0,10.0,69,0.00,,,0.00,weatherlink.com 1.10,2013-05-14 02:03:00,
2013-05-13 22:18:00,41.1,32.0,30.12,West,265,6.0,10.0,69,0.00,,,0.00,weatherlink.com 1.10,2013-05-14 02:18:00,
2013-05-13 22:33:00,40.5,32.0,30.12,West,262,1.0,5.0,71,0.00,,,0.00,weatherlink.com 1.10,2013-05-14 02:33:00,
2013-05-13 22:48:00,40.4,32.0,30.12,West,268,7.0,12.0,71,0.00,,,0.00,weatherlink.com 1.10,2013-05-14 02:48:00,
2013-05-13 23:03:00,40.2,31.0,30.12,WSW,249,6.0,10.0,71,0.00,,,0.00,weatherlink.com 1.10,2013-05-14 03:03:00,
2013-05-13 23:18:00,39.8,31.0,30.12,WSW,255,4.0,9.0,72,0.00,,,0.00,weatherlink.com 1.10,2013-05-14 03:18:00,
2013-05-13 23:33:00,39.3,31.0,30.12,West,279,6.0,9.0,73,0.00,,,0.00,weatherlink.com 1.10,2013-05-14 03:33:00,
2013-05-13 23:48:00,39.2,32.0,30.12,WSW,256,5.0,10.0,74,0.00,,,0.00,weatherlink.com 1.10,2013-05-14 03:48:00,